createdAt,value
2022-07-31T00:02:12.625Z,97298.66
2022-07-31T00:04:42.438Z,97302.94
2022-07-31T00:07:16.090Z,97296.22
2022-07-31T00:09:54.457Z,97301.50
2022-07-31T00:12:23.565Z,97299.03
2022-07-31T00:14:54.494Z,97303.75
2022-07-31T00:17:25.947Z,97295.34
2022-07-31T00:19:58.980Z,97291.22
2022-07-31T00:22:29.586Z,97297.19
2022-07-31T00:24:58.070Z,97295.56
2022-07-31T00:27:26.404Z,97300.88
2022-07-31T00:29:54.804Z,97302.53
2022-07-31T00:32:27.952Z,97302.75
2022-07-31T00:34:56.256Z,97293.88
2022-07-31T00:37:26.016Z,97304.91
2022-07-31T00:39:54.583Z,97306.59
2022-07-31T00:42:25.794Z,97301.88
2022-07-31T00:44:54.448Z,97310.53
2022-07-31T00:47:25.572Z,97300.03
2022-07-31T00:49:57.015Z,97309.81
2022-07-31T00:52:26.737Z,97309.19
2022-07-31T00:54:55.202Z,97302.84
2022-07-31T00:57:23.559Z,97308.63
2022-07-31T00:59:52.017Z,97298.78
2022-07-31T01:02:20.372Z,97305.06
2022-07-31T01:04:48.776Z,97302.94
2022-07-31T01:07:17.046Z,97300.75
2022-07-31T01:09:53.898Z,97296.69
2022-07-31T01:12:25.273Z,97300.72
2022-07-31T01:14:57.696Z,97305.81
2022-07-31T01:17:32.059Z,97302.72
2022-07-31T01:20:02.472Z,97299.03
2022-07-31T01:22:50.623Z,97302.19
2022-07-31T01:25:37.662Z,97308.97
2022-07-31T01:28:10.959Z,97292.22
2022-07-31T01:30:44.912Z,97295.66
2022-07-31T01:33:17.270Z,97295.88
2022-07-31T01:35:53.260Z,97296.09
2022-07-31T01:38:30.518Z,97290.13
2022-07-31T01:41:00.138Z,97297.94
2022-07-31T01:43:32.679Z,97304.28
2022-07-31T01:46:37.505Z,97296.09
2022-07-31T01:49:10.674Z,97296.09
2022-07-31T01:51:45.291Z,97299.69
2022-07-31T01:54:14.219Z,97306.25
2022-07-31T01:56:45.280Z,97304.38
2022-07-31T01:59:22.556Z,97296.56
2022-07-31T02:01:53.560Z,97299.47
2022-07-31T02:04:24.511Z,97296.81
2022-07-31T02:06:57.064Z,97298.84
2022-07-31T02:09:28.928Z,97306.19
2022-07-31T02:11:57.563Z,97298.00
2022-07-31T02:14:26.789Z,97293.69
2022-07-31T02:16:57.081Z,97302.25
2022-07-31T02:19:29.002Z,97303.84
2022-07-31T02:22:08.774Z,97306.13
2022-07-31T02:24:40.085Z,97309.53
2022-07-31T02:27:56.270Z,97305.63
2022-07-31T02:29:59.087Z,97304.38
2022-07-31T02:32:29.010Z,97299.84
2022-07-31T02:34:59.606Z,97304.53
2022-07-31T02:37:28.864Z,97309.00
2022-07-31T02:39:59.491Z,97303.28
2022-07-31T02:42:28.215Z,97299.78
2022-07-31T02:44:57.335Z,97293.41
2022-07-31T02:47:25.741Z,97301.94
2022-07-31T02:50:04.283Z,97296.19
2022-07-31T02:52:32.690Z,97286.22
2022-07-31T02:55:03.179Z,97288.88
2022-07-31T02:57:31.346Z,97293.41
2022-07-31T03:00:03.406Z,97289.50
2022-07-31T03:02:37.854Z,97288.66
2022-07-31T03:05:08.585Z,97286.59
2022-07-31T03:07:41.464Z,97283.44
2022-07-31T03:10:13.265Z,97288.25
2022-07-31T03:12:51.802Z,97284.91
2022-07-31T03:15:21.933Z,97278.09
2022-07-31T03:17:53.494Z,97269.47
2022-07-31T03:20:25.065Z,97273.75
2022-07-31T03:22:55.708Z,97268.09
2022-07-31T03:25:25.792Z,97273.34
2022-07-31T03:27:57.397Z,97271.72
2022-07-31T03:30:26.197Z,97275.38
2022-07-31T03:32:58.245Z,97277.81
2022-07-31T03:35:30.640Z,97272.91
2022-07-31T03:37:58.954Z,97276.41
2022-07-31T03:40:29.327Z,97291.59
2022-07-31T03:42:58.418Z,97286.09
2022-07-31T03:45:30.541Z,97286.03
2022-07-31T03:48:00.626Z,97283.38
2022-07-31T03:50:30.806Z,97279.94
2022-07-31T03:53:04.101Z,97286.22
2022-07-31T03:55:36.298Z,97283.56
2022-07-31T03:58:09.821Z,97286.59
2022-07-31T04:00:38.111Z,97289.50
2022-07-31T04:03:12.351Z,97284.47
2022-07-31T04:05:44.492Z,97285.66
2022-07-31T04:08:17.901Z,97284.19
2022-07-31T04:10:46.028Z,97284.72
2022-07-31T04:13:14.195Z,97286.38
2022-07-31T04:15:45.243Z,97286.47
2022-07-31T04:18:17.854Z,97291.41
2022-07-31T04:20:53.184Z,97292.81
2022-07-31T04:23:21.299Z,97300.13
2022-07-31T04:25:55.142Z,97291.41
2022-07-31T04:28:24.512Z,97297.25
2022-07-31T04:30:52.632Z,97297.59
2022-07-31T04:33:21.313Z,97301.09
2022-07-31T04:35:55.815Z,97299.66
2022-07-31T04:38:28.201Z,97296.28
2022-07-31T04:41:02.325Z,97291.88
2022-07-31T04:43:30.523Z,97293.59
2022-07-31T04:45:59.128Z,97291.19
2022-07-31T04:48:29.810Z,97293.88
2022-07-31T04:50:59.910Z,97294.56
2022-07-31T04:53:28.350Z,97295.69
2022-07-31T04:56:10.287Z,97300.59
2022-07-31T04:58:38.508Z,97299.16
2022-07-31T05:01:09.695Z,97305.53
2022-07-31T05:03:41.816Z,97301.06
2022-07-31T05:06:17.052Z,97292.84
2022-07-31T05:08:45.289Z,97302.47
2022-07-31T05:11:25.952Z,97305.56
2022-07-31T05:13:58.190Z,97306.00
2022-07-31T05:16:29.838Z,97306.22
2022-07-31T05:18:58.781Z,97310.34
2022-07-31T05:21:32.656Z,97307.06
2022-07-31T05:24:05.081Z,97306.25
2022-07-31T05:26:40.064Z,97307.03
2022-07-31T05:29:10.910Z,97303.25
2022-07-31T05:31:39.146Z,97299.03
2022-07-31T05:34:27.250Z,97297.00
2022-07-31T05:37:01.776Z,97297.41
2022-07-31T05:39:30.442Z,97293.97
2022-07-31T05:41:58.689Z,97290.13
2022-07-31T05:44:37.394Z,97291.00
2022-07-31T05:47:08.860Z,97285.78
2022-07-31T05:49:42.033Z,97294.94
2022-07-31T05:52:11.572Z,97290.41
2022-07-31T05:54:46.193Z,97284.41
2022-07-31T05:57:32.977Z,97284.59
2022-07-31T06:00:07.012Z,97289.16
2022-07-31T06:02:37.594Z,97298.97
2022-07-31T06:05:06.150Z,97290.88
2022-07-31T06:07:37.065Z,97282.94
2022-07-31T06:10:06.307Z,97291.59
2022-07-31T06:12:37.368Z,97299.66
2022-07-31T06:15:07.244Z,97293.56
2022-07-31T06:17:43.780Z,97299.81
2022-07-31T06:20:15.467Z,97297.91
2022-07-31T06:22:48.231Z,97305.31
2022-07-31T06:25:16.774Z,97300.41
2022-07-31T06:27:50.910Z,97290.28
2022-07-31T06:30:28.091Z,97304.66
2022-07-31T06:32:56.382Z,97296.44
2022-07-31T06:35:29.175Z,97307.28
2022-07-31T06:38:01.179Z,97310.78
2022-07-31T06:40:29.734Z,97307.16
2022-07-31T06:42:58.061Z,97310.09
2022-07-31T06:45:50.713Z,97311.97
2022-07-31T06:48:19.842Z,97319.22
2022-07-31T06:50:48.841Z,97319.91
2022-07-31T06:53:22.850Z,97318.06
2022-07-31T06:55:51.486Z,97309.28
2022-07-31T06:58:20.852Z,97313.00
2022-07-31T07:00:55.973Z,97315.84
2022-07-31T07:03:24.280Z,97317.72
2022-07-31T07:05:52.597Z,97303.84
2022-07-31T07:08:22.319Z,97307.16
2022-07-31T07:10:56.238Z,97306.94
2022-07-31T07:13:45.861Z,97314.09
2022-07-31T07:16:16.739Z,97298.63
2022-07-31T07:18:46.086Z,97307.53
2022-07-31T07:21:14.596Z,97310.28
2022-07-31T07:23:47.463Z,97308.66
2022-07-31T07:26:21.823Z,97310.44
2022-07-31T07:28:56.605Z,97309.41
2022-07-31T07:31:31.574Z,97305.63
2022-07-31T07:34:03.601Z,97311.19
2022-07-31T07:36:32.109Z,97310.03
2022-07-31T07:39:03.817Z,97306.56
2022-07-31T07:41:32.107Z,97309.97
2022-07-31T07:44:00.735Z,97311.69
2022-07-31T07:46:36.340Z,97311.03
2022-07-31T07:49:05.377Z,97305.06
2022-07-31T07:51:34.084Z,97308.50
2022-07-31T07:54:15.869Z,97307.91
2022-07-31T07:56:45.531Z,97299.47
2022-07-31T07:59:14.925Z,97300.19
2022-07-31T08:01:43.605Z,97300.09
2022-07-31T08:04:11.984Z,97294.09
2022-07-31T08:06:40.260Z,97293.41
2022-07-31T08:09:10.102Z,97295.41
2022-07-31T08:11:40.846Z,97296.44
2022-07-31T08:14:15.242Z,97289.47
2022-07-31T08:16:44.363Z,97291.09
2022-07-31T08:19:14.624Z,97288.66
2022-07-31T08:21:42.918Z,97287.72
2022-07-31T08:24:15.498Z,97282.44
2022-07-31T08:27:03.792Z,97281.59
2022-07-31T08:29:43.721Z,97284.69
2022-07-31T08:32:13.784Z,97276.44
2022-07-31T08:34:56.617Z,97271.44
2022-07-31T08:53:10.462Z,97264.16
2022-07-31T09:09:04.803Z,97273.34
2022-07-31T09:18:23.113Z,97259.38
2022-07-31T11:39:51.361Z,97108.72
2022-07-31T11:42:44.593Z,97107.16
2022-07-31T11:51:45.890Z,97094.06
2022-07-31T12:18:49.008Z,97074.97
2022-07-31T12:21:44.806Z,97062.19
2022-07-31T14:20:56.416Z,96983.91
2022-07-31T14:38:51.194Z,97003.47
2022-07-31T14:41:41.972Z,96995.03
2022-07-31T14:47:09.805Z,97000.09
2022-07-31T14:50:09.499Z,97002.22
2022-07-31T14:52:27.781Z,96994.66
2022-07-31T14:55:06.696Z,96990.59
2022-07-31T14:57:35.247Z,96981.91
2022-07-31T15:00:03.373Z,96984.69
2022-07-31T15:02:39.341Z,96986.53
2022-07-31T15:06:41.347Z,97002.09
2022-07-31T15:07:58.156Z,96982.50
2022-07-31T15:10:27.806Z,96990.13
2022-07-31T15:12:59.202Z,96988.56
2022-07-31T15:15:30.254Z,96975.06
2022-07-31T15:18:02.029Z,96983.88
2022-07-31T15:20:33.005Z,96992.69
2022-07-31T15:23:01.618Z,96983.53
2022-07-31T15:25:34.100Z,96991.66
2022-07-31T15:28:02.372Z,96987.38
2022-07-31T15:30:31.108Z,96981.88
2022-07-31T15:32:59.178Z,96986.00
2022-07-31T15:35:29.228Z,96979.75
2022-07-31T15:37:59.815Z,96976.69
2022-07-31T15:40:27.877Z,96975.06
2022-07-31T15:43:00.432Z,96972.16
2022-07-31T15:45:28.700Z,96972.09
2022-07-31T15:47:59.731Z,96960.91
2022-07-31T15:50:27.926Z,96965.44
2022-07-31T15:52:56.127Z,96966.59
2022-07-31T15:55:24.318Z,96970.44
2022-07-31T15:57:52.548Z,96964.47
2022-07-31T16:00:22.602Z,96967.41
2022-07-31T16:02:57.221Z,96966.38
2022-07-31T16:05:36.866Z,96955.09
2022-07-31T16:08:32.330Z,96960.47
2022-07-31T16:10:56.094Z,96955.59
2022-07-31T16:13:27.403Z,96964.38
2022-07-31T16:15:57.254Z,96960.84
2022-07-31T16:18:25.467Z,96957.56
2022-07-31T16:20:53.571Z,96956.50
2022-07-31T16:23:28.155Z,96958.25
2022-07-31T16:26:08.698Z,96950.59
2022-07-31T16:28:36.866Z,96948.25
2022-07-31T16:31:06.366Z,96959.94
2022-07-31T16:33:34.458Z,96957.34
2022-07-31T16:36:02.585Z,96957.00
2022-07-31T16:38:36.177Z,96957.44
2022-07-31T16:41:08.865Z,96950.97
2022-07-31T16:43:49.428Z,96958.59
2022-07-31T16:46:20.678Z,96948.78
2022-07-31T16:48:49.022Z,96961.22
2022-07-31T16:51:17.127Z,96965.09
2022-07-31T16:54:13.662Z,96957.53
2022-07-31T16:56:33.582Z,96952.81
2022-07-31T16:59:04.729Z,96943.88
2022-07-31T17:01:54.204Z,96940.63
2022-07-31T17:04:28.595Z,96942.31
2022-07-31T17:06:57.071Z,96940.53
2022-07-31T17:09:25.309Z,96940.53
2022-07-31T17:12:00.096Z,96931.53
2022-07-31T17:14:29.044Z,96933.72
2022-07-31T17:17:01.489Z,96931.88
2022-07-31T17:19:36.116Z,96943.50
2022-07-31T17:22:11.329Z,96933.16
2022-07-31T17:24:41.760Z,96941.38
2022-07-31T17:27:13.529Z,96944.88
2022-07-31T17:29:41.607Z,96940.88
2022-07-31T17:32:14.425Z,96934.69
2022-07-31T17:34:45.153Z,96937.22
2022-07-31T17:37:13.717Z,96940.38
2022-07-31T17:39:41.902Z,96939.03
2022-07-31T17:42:10.072Z,96942.41
2022-07-31T17:44:39.831Z,96940.28
2022-07-31T17:47:10.974Z,96945.22
2022-07-31T17:49:40.709Z,96949.75
2022-07-31T17:52:09.033Z,96946.97
2022-07-31T17:54:37.375Z,96952.97
2022-07-31T17:57:14.290Z,96950.72
2022-07-31T17:59:42.506Z,96953.00
2022-07-31T18:02:13.575Z,96949.50
2022-07-31T18:04:43.294Z,96948.56
2022-07-31T18:07:12.666Z,96953.78
2022-07-31T18:09:43.050Z,96949.56
2022-07-31T18:12:15.678Z,96945.53
2022-07-31T18:14:46.379Z,96954.78
2022-07-31T18:17:14.525Z,96954.28
2022-07-31T18:19:47.562Z,96948.88
2022-07-31T18:22:18.803Z,96942.69
2022-07-31T18:24:46.899Z,96946.50
2022-07-31T18:27:15.114Z,96951.91
2022-07-31T18:29:56.505Z,96944.94
2022-07-31T18:32:31.213Z,96936.28
2022-07-31T18:35:11.894Z,96950.06
2022-07-31T18:37:40.005Z,96947.66
2022-07-31T18:40:15.452Z,96950.63
2022-07-31T18:42:46.597Z,96949.59
2022-07-31T18:45:14.836Z,96950.13
2022-07-31T18:47:43.029Z,96949.00
2022-07-31T18:50:59.457Z,96950.09
2022-07-31T18:53:09.812Z,96945.25
2022-07-31T18:55:41.923Z,96955.53
2022-07-31T18:58:12.783Z,96956.88
2022-07-31T19:00:42.782Z,96951.19
2022-07-31T19:03:11.159Z,96949.56
2022-07-31T19:05:44.627Z,96960.34
2022-07-31T19:08:12.744Z,96958.44
2022-07-31T19:10:40.887Z,96964.91
2022-07-31T19:13:09.017Z,96955.44
2022-07-31T19:15:47.477Z,96960.00
2022-07-31T19:18:15.681Z,96960.53
2022-07-31T19:20:59.956Z,96964.03
2022-07-31T19:23:46.147Z,96965.91
2022-07-31T19:26:16.223Z,96961.25
2022-07-31T19:28:50.237Z,96954.25
2022-07-31T19:31:19.994Z,96950.19
2022-07-31T19:33:48.189Z,96956.91
2022-07-31T19:36:17.839Z,96959.59
2022-07-31T19:38:47.876Z,96968.22
2022-07-31T19:41:16.118Z,96966.84
2022-07-31T19:43:49.982Z,96955.25
2022-07-31T19:46:21.946Z,96964.13
2022-07-31T19:48:51.639Z,96955.22
2022-07-31T19:51:24.407Z,96966.25
2022-07-31T19:53:57.246Z,96956.50
2022-07-31T19:56:25.366Z,96967.53
2022-07-31T19:58:53.545Z,96969.91
2022-07-31T20:01:21.945Z,96959.34
2022-07-31T20:03:51.006Z,96955.53
2022-07-31T20:06:22.539Z,96956.59
2022-07-31T20:08:58.834Z,96955.44
2022-07-31T20:11:27.022Z,96950.59
2022-07-31T20:14:00.218Z,96957.06
2022-07-31T20:16:28.715Z,96953.56
2022-07-31T20:18:56.951Z,96953.28
2022-07-31T20:21:25.088Z,96944.63
2022-07-31T20:23:56.764Z,96953.03
2022-07-31T20:26:30.455Z,96956.78
2022-07-31T20:29:01.097Z,96954.31
2022-07-31T20:31:31.753Z,96950.78
2022-07-31T20:34:02.945Z,96954.81
2022-07-31T20:36:31.171Z,96963.41
2022-07-31T20:39:00.812Z,96952.63
2022-07-31T20:41:33.514Z,96955.56
2022-07-31T20:44:01.707Z,96948.81
2022-07-31T20:46:34.315Z,96956.06
2022-07-31T20:49:02.732Z,96952.31
2022-07-31T20:51:33.500Z,96946.09
2022-07-31T20:54:05.876Z,96943.34
2022-07-31T20:56:34.331Z,96945.81
2022-07-31T20:59:03.521Z,96946.94
2022-07-31T21:01:37.652Z,96932.31
2022-07-31T21:04:07.936Z,96943.41
2022-07-31T21:06:36.021Z,96943.91
2022-07-31T21:09:09.685Z,96938.78
2022-07-31T21:11:43.953Z,96930.66
2022-07-31T21:14:15.638Z,96936.84
2022-07-31T21:16:46.762Z,96934.13
2022-07-31T21:19:17.854Z,96933.28
2022-07-31T21:21:47.539Z,96931.91
2022-07-31T21:24:17.627Z,96929.84
2022-07-31T21:26:51.056Z,96923.91
2022-07-31T21:29:22.512Z,96919.91
2022-07-31T21:31:56.646Z,96923.13
2022-07-31T21:34:28.010Z,96924.19
2022-07-31T21:36:56.291Z,96926.81
2022-07-31T21:39:34.602Z,96926.13
2022-07-31T21:42:06.046Z,96918.91
2022-07-31T21:44:37.364Z,96919.66
2022-07-31T21:47:06.450Z,96919.13
2022-07-31T21:49:36.657Z,96916.66
2022-07-31T21:52:13.288Z,96916.88
2022-07-31T21:54:42.789Z,96916.75
2022-07-31T21:57:17.534Z,96920.72
2022-07-31T21:59:48.417Z,96913.16
2022-07-31T22:02:17.702Z,96910.34
2022-07-31T22:05:02.101Z,96910.84
2022-07-31T22:07:33.345Z,96919.13
2022-07-31T22:10:08.451Z,96913.06
2022-07-31T22:12:36.578Z,96917.88
2022-07-31T22:15:12.329Z,96912.50
2022-07-31T22:17:43.145Z,96915.47
2022-07-31T22:20:12.426Z,96914.06
2022-07-31T22:22:45.615Z,96917.25
2022-07-31T22:25:16.540Z,96916.72
2022-07-31T22:27:58.326Z,96912.41
2022-07-31T22:30:28.099Z,96917.78
2022-07-31T22:33:01.437Z,96914.84
2022-07-31T22:35:40.976Z,96912.44
2022-07-31T22:38:11.234Z,96909.97
2022-07-31T22:40:51.468Z,96907.13
2022-07-31T22:44:09.634Z,96905.28
2022-07-31T22:46:16.055Z,96899.91
2022-07-31T22:48:45.877Z,96893.75
2022-07-31T22:51:16.450Z,96896.44
2022-07-31T22:53:48.679Z,96900.69
2022-07-31T22:56:18.955Z,96900.19
2022-07-31T22:58:47.088Z,96898.50
2022-07-31T23:01:20.771Z,96898.22
2022-07-31T23:03:48.867Z,96899.56
2022-07-31T23:06:32.208Z,96885.97
2022-07-31T23:09:01.566Z,96893.41
2022-07-31T23:11:31.129Z,96893.06
2022-07-31T23:14:02.231Z,96892.75
2022-07-31T23:16:30.297Z,96894.13
2022-07-31T23:18:58.407Z,96894.50
2022-07-31T23:21:26.648Z,96897.44
2022-07-31T23:23:58.495Z,96895.41
2022-07-31T23:26:27.088Z,96897.06
2022-07-31T23:28:59.436Z,96888.75
2022-07-31T23:31:32.987Z,96890.63
2022-07-31T23:34:02.264Z,96879.59
2022-07-31T23:36:30.396Z,96884.28
2022-07-31T23:38:58.689Z,96889.56
2022-07-31T23:41:44.534Z,96887.78
2022-07-31T23:44:14.017Z,96887.50
2022-07-31T23:46:46.823Z,96886.72
2022-07-31T23:49:22.409Z,96877.03
2022-07-31T23:51:55.637Z,96878.09
2022-07-31T23:54:26.669Z,96882.59
2022-07-31T23:57:01.492Z,96863.25
2022-07-31T23:59:30.972Z,96880.13
